Oberon, North Dakota
Current Conditions -  °F | °C
As of 8:55 PM on Monday 22 Dec 2014 (Local Time) from KDVL Reporting Station
Overcast Overcast  
Wind Chill: 25°   Ceiling: 400
Heat Index: 34°   Visibility: 5mi
Dew Point: 30°   Wind: 13mph
Humidity: 87%   Direction: 30°NNE
Pressure: 29.71"   Gusts: NA
Location:  47.92°N, 99.2°W
Report Text: KDVL 230255Z AUTO 03011KT 5SM OVC004 01/M01 A2971 RMK AO1 52027
Loading
Personal Weather Stations






























Interactive Weather Map New forecast layout! Learn more

10-Day Weather Forecast

Advertisements
Track Severe Weather on mobile